Time;durP1;ratioP1;P1;durP2;ratioP2;P2;SDS_P1;SDS_P2;PMS_P1;PMS_P2;Temp;Humidity;BMP_temperature;BMP_pressure;BME280_temperature;BME280_humidity;BME280_pressure;Samples;Min_cycle;Max_cycle;Signal;HPM_P1;HPM_P2
2022/09/23 00:00:47;;;;;;;9.50;8.20;;;12.20;99.90;;;;;;6068472;23;20215;-78
2022/09/23 00:03:14;;;;;;;7.88;7.07;;;12.20;99.90;;;;;;6068832;23;20212;-77
2022/09/23 00:05:42;;;;;;;9.55;7.57;;;12.20;99.90;;;;;;6068158;23;20223;-78
2022/09/23 00:08:12;;;;;;;9.07;8.20;;;12.20;99.90;;;;;;6067718;23;20204;-77
2022/09/23 00:10:40;;;;;;;16.70;7.93;;;12.20;99.90;;;;;;6067254;23;20204;-79
2022/09/23 00:13:07;;;;;;;7.90;6.97;;;12.20;99.90;;;;;;6066066;23;20303;-78
2022/09/23 00:15:39;;;;;;;10.57;7.32;;;12.20;99.90;;;;;;6067267;23;20212;-78
2022/09/23 00:18:06;;;;;;;8.63;6.60;;;12.20;99.90;;;;;;6068787;23;20204;-78
2022/09/23 00:20:34;;;;;;;9.00;7.93;;;12.20;99.90;;;;;;6065612;23;20523;-78
2022/09/23 00:23:01;;;;;;;10.27;8.43;;;12.20;99.90;;;;;;6066541;23;20239;-78
2022/09/23 00:25:29;;;;;;;12.23;7.75;;;12.20;99.90;;;;;;6067864;23;20204;-78
2022/09/23 00:27:58;;;;;;;7.63;6.90;;;12.10;99.90;;;;;;6066492;23;20288;-78
2022/09/23 00:30:26;;;;;;;8.07;7.28;;;12.10;99.90;;;;;;6068244;23;20205;-78
2022/09/23 00:32:52;;;;;;;7.32;6.63;;;12.10;99.90;;;;;;6067423;23;20247;-78
2022/09/23 00:35:20;;;;;;;21.27;11.98;;;12.10;99.90;;;;;;6068338;23;20200;-77
2022/09/23 00:37:47;;;;;;;11.80;10.60;;;12.10;99.90;;;;;;6068069;23;20207;-78
2022/09/23 00:40:14;;;;;;;10.48;9.43;;;12.10;99.90;;;;;;6067775;23;20214;-78
2022/09/23 00:42:47;;;;;;;9.02;8.05;;;12.10;99.90;;;;;;6067782;23;20211;-77
2022/09/23 00:45:17;;;;;;;8.73;7.97;;;12.10;99.90;;;;;;6068434;23;20553;-78
2022/09/23 00:47:48;;;;;;;7.88;6.95;;;12.10;99.90;;;;;;6068001;23;20953;-78
2022/09/23 00:50:21;;;;;;;7.78;6.72;;;12.10;99.90;;;;;;6067849;23;20204;-77
2022/09/23 00:52:50;;;;;;;7.60;6.60;;;12.10;99.90;;;;;;6053970;23;20215;-78
2022/09/23 00:55:22;;;;;;;7.45;6.60;;;12.10;99.90;;;;;;6067689;23;20203;-78
2022/09/23 00:57:50;;;;;;;6.85;6.15;;;12.10;99.90;;;;;;6067949;23;20291;-78
2022/09/23 01:00:18;;;;;;;6.60;6.00;;;12.10;99.90;;;;;;6068179;23;20227;-78
2022/09/23 01:02:45;;;;;;;7.53;6.82;;;12.00;99.90;;;;;;6067161;23;20244;-78
2022/09/23 01:05:13;;;;;;;6.72;5.95;;;12.00;99.90;;;;;;6067972;23;20228;-77
2022/09/23 01:07:40;;;;;;;6.60;6.00;;;12.00;99.90;;;;;;6067530;23;20208;-78
2022/09/23 01:10:09;;;;;;;6.80;6.20;;;12.00;99.90;;;;;;6068652;23;20203;-77
2022/09/23 01:13:02;;;;;;;7.20;6.38;;;12.00;99.90;;;;;;6068173;23;20313;-79
2022/09/23 01:15:39;;;;;;;8.10;6.32;;;12.00;99.90;;;;;;6068167;23;20203;-79
2022/09/23 01:18:14;;;;;;;6.72;5.20;;;12.00;99.90;;;;;;6068430;23;20204;-78
2022/09/23 01:21:09;;;;;;;7.15;5.97;;;12.00;99.90;;;;;;6054915;23;20647;-79
2022/09/23 01:24:06;;;;;;;7.75;6.22;;;12.00;99.90;;;;;;6065512;23;20705;-79
2022/09/23 01:27:18;;;;;;;7.05;6.38;;;12.00;99.90;;;;;;6062986;23;20208;-80
2022/09/23 01:30:08;;;;;;;6.60;6.00;;;12.00;99.90;;;;;;6008860;23;20205;-78
2022/09/23 01:33:00;;;;;;;7.07;6.38;;;12.00;99.90;;;;;;6062696;23;20208;-78
2022/09/23 01:35:34;;;;;;;6.10;5.57;;;12.00;99.90;;;;;;6067136;23;20262;-78
2022/09/23 01:38:12;;;;;;;9.32;5.97;;;12.00;99.90;;;;;;6068042;23;20299;-78
2022/09/23 01:40:49;;;;;;;6.72;6.03;;;12.00;99.90;;;;;;6065768;23;20204;-78
2022/09/23 01:43:23;;;;;;;5.45;4.95;;;12.00;99.90;;;;;;6065876;23;20239;-78
2022/09/23 01:45:55;;;;;;;5.82;5.30;;;11.90;99.90;;;;;;6066284;23;20204;-78
2022/09/23 01:48:31;;;;;;;5.88;4.95;;;11.90;99.90;;;;;;6066547;23;20211;-79
2022/09/23 01:51:05;;;;;;;9.50;7.15;;;11.90;99.90;;;;;;6067307;23;20204;-78
2022/09/23 01:53:40;;;;;;;6.10;5.50;;;11.80;99.90;;;;;;6038471;23;20582;-78
2022/09/23 01:56:12;;;;;;;6.65;5.78;;;11.80;99.90;;;;;;6038932;23;20200;-78
2022/09/23 01:58:45;;;;;;;7.65;6.05;;;11.80;99.90;;;;;;6042074;23;20205;-78
2022/09/23 02:01:18;;;;;;;6.47;5.88;;;11.80;99.90;;;;;;6042002;23;20224;-79
2022/09/23 02:03:51;;;;;;;6.97;6.28;;;11.70;99.90;;;;;;6045442;23;20280;-77
2022/09/23 02:06:24;;;;;;;6.43;5.82;;;11.80;99.90;;;;;;6044127;23;20222;-78
2022/09/23 02:08:57;;;;;;;6.90;6.18;;;11.70;99.90;;;;;;6047375;23;20200;-78
2022/09/23 02:11:24;;;;;;;8.80;6.53;;;11.70;99.90;;;;;;6042254;23;20200;-79
2022/09/23 02:13:55;;;;;;;6.95;6.25;;;11.70;99.90;;;;;;6040490;23;20196;-79
2022/09/23 02:16:27;;;;;;;6.10;5.47;;;11.70;99.90;;;;;;6040474;23;20207;-78
2022/09/23 02:19:00;;;;;;;6.40;5.78;;;11.70;99.90;;;;;;6039741;23;20260;-78
2022/09/23 02:21:32;;;;;;;8.13;5.80;;;11.70;99.90;;;;;;6038736;23;20224;-78
2022/09/23 02:24:07;;;;;;;6.45;5.85;;;11.70;99.90;;;;;;6039703;23;20213;-77
2022/09/23 02:26:38;;;;;;;5.90;5.22;;;11.70;99.90;;;;;;6038867;23;20202;-77
2022/09/23 02:29:12;;;;;;;5.35;4.85;;;11.70;99.90;;;;;;6039559;23;20201;-78
2022/09/23 02:31:45;;;;;;;6.97;5.32;;;11.70;99.90;;;;;;6038641;23;20204;-78
2022/09/23 02:34:29;;;;;;;7.45;6.00;;;11.70;99.90;;;;;;6039668;23;20209;-77
2022/09/23 02:37:05;;;;;;;6.22;5.45;;;11.70;99.90;;;;;;6039544;23;20188;-78
2022/09/23 02:39:39;;;;;;;6.15;5.60;;;11.70;99.90;;;;;;6039262;23;20200;-78
2022/09/23 02:42:09;;;;;;;6.13;5.60;;;11.80;99.90;;;;;;6038706;23;20209;-79
2022/09/23 02:44:36;;;;;;;6.82;5.30;;;11.80;99.90;;;;;;6039324;23;20201;-78
2022/09/23 02:47:03;;;;;;;7.10;5.95;;;11.70;99.90;;;;;;6038493;23;20208;-78
2022/09/23 02:49:35;;;;;;;8.18;5.20;;;11.80;99.90;;;;;;6039206;23;20200;-78
2022/09/23 02:52:06;;;;;;;6.95;5.60;;;11.80;99.90;;;;;;6050871;23;20230;-77
2022/09/23 02:54:34;;;;;;;8.40;5.75;;;11.80;99.90;;;;;;6068778;23;20204;-78
2022/09/23 02:57:05;;;;;;;7.70;6.57;;;11.70;99.90;;;;;;6068342;23;20679;-78
2022/09/23 02:59:35;;;;;;;7.82;5.97;;;11.70;99.90;;;;;;6069413;23;20200;-78
2022/09/23 03:02:27;;;;;;;6.82;6.18;;;11.70;99.90;;;;;;6069274;23;20276;-78
2022/09/23 03:05:05;;;;;;;6.72;5.80;;;11.70;99.90;;;;;;6069403;23;20204;-78
2022/09/23 03:07:39;;;;;;;6.50;6.00;;;11.70;99.90;;;;;;6067792;23;20200;-79
2022/09/23 03:10:14;;;;;;;6.35;5.80;;;11.70;99.90;;;;;;6069651;23;20204;-79
2022/09/23 03:12:47;;;;;;;7.97;6.03;;;11.70;99.90;;;;;;6068993;23;20271;-78
2022/09/23 03:15:23;;;;;;;7.35;6.68;;;11.70;99.90;;;;;;6068937;23;20204;-79
2022/09/23 03:17:59;;;;;;;6.55;5.95;;;11.70;99.90;;;;;;6069232;23;20212;-77
2022/09/23 03:20:34;;;;;;;6.68;6.07;;;11.70;99.90;;;;;;6067812;23;20199;-78
2022/09/23 03:23:05;;;;;;;6.85;6.25;;;11.60;99.90;;;;;;6068325;23;20275;-77
2022/09/23 03:25:36;;;;;;;12.52;10.30;;;11.60;99.90;;;;;;6067107;23;20213;-77
2022/09/23 03:28:05;;;;;;;7.95;7.20;;;11.60;99.90;;;;;;6068694;23;20275;-77
2022/09/23 03:30:34;;;;;;;7.25;6.05;;;11.60;99.90;;;;;;6068773;23;20219;-78
2022/09/23 03:33:03;;;;;;;7.88;5.88;;;11.60;99.90;;;;;;6069461;23;20212;-78
2022/09/23 03:36:48;;;;;;;7.18;6.47;;;11.60;99.90;;;;;;6068758;23;20205;-78
2022/09/23 03:38:26;;;;;;;7.05;6.45;;;11.60;99.90;;;;;;6068945;23;20208;-79
2022/09/23 03:40:56;;;;;;;8.70;7.95;;;11.60;99.90;;;;;;6069448;23;20211;-79
2022/09/23 03:43:23;;;;;;;7.10;6.38;;;11.60;99.90;;;;;;6068908;23;20212;-79
2022/09/23 03:45:56;;;;;;;7.25;6.65;;;11.60;99.90;;;;;;6068336;23;20196;-79
2022/09/23 03:48:23;;;;;;;7.80;7.05;;;11.60;99.90;;;;;;6068885;23;20641;-78
2022/09/23 03:50:52;;;;;;;8.75;7.95;;;11.50;99.90;;;;;;6067087;23;20224;-78
2022/09/23 03:53:19;;;;;;;9.02;7.35;;;11.50;99.90;;;;;;6069078;23;20212;-77
2022/09/23 03:55:47;;;;;;;8.25;6.95;;;11.50;99.90;;;;;;6068597;23;20237;-77
2022/09/23 03:58:14;;;;;;;6.75;6.15;;;11.50;99.90;;;;;;6069078;23;20292;-78
2022/09/23 04:00:42;;;;;;;9.75;8.02;;;11.50;99.90;;;;;;6068516;23;20208;-79
2022/09/23 04:03:11;;;;;;;7.75;6.68;;;11.50;99.90;;;;;;6069225;23;20208;-79
2022/09/23 04:05:38;;;;;;;8.40;6.95;;;11.40;99.90;;;;;;6068577;23;20208;-79
2022/09/23 04:08:07;;;;;;;7.40;6.70;;;11.40;99.90;;;;;;6069113;23;20232;-79
2022/09/23 04:10:34;;;;;;;8.38;7.55;;;11.40;99.90;;;;;;6068393;23;20239;-79
2022/09/23 04:13:01;;;;;;;7.80;6.72;;;11.40;99.90;;;;;;6069220;23;20524;-78
2022/09/23 04:15:28;;;;;;;8.93;7.05;;;11.40;99.90;;;;;;6069055;23;20218;-78
2022/09/23 04:17:55;;;;;;;7.30;6.60;;;11.40;99.90;;;;;;6069063;23;20200;-78
2022/09/23 04:20:22;;;;;;;10.68;7.70;;;11.40;99.90;;;;;;6069152;23;20200;-78
2022/09/23 04:22:51;;;;;;;10.18;7.60;;;11.40;99.90;;;;;;6069237;23;20208;-78
2022/09/23 04:25:19;;;;;;;9.18;8.02;;;11.40;99.90;;;;;;6070285;23;20208;-78
2022/09/23 04:27:46;;;;;;;14.43;9.40;;;11.30;99.90;;;;;;6069615;23;20235;-77
2022/09/23 04:30:14;;;;;;;8.40;7.53;;;11.30;99.90;;;;;;6070540;23;20226;-78
2022/09/23 04:32:41;;;;;;;9.50;7.13;;;11.30;99.90;;;;;;6068867;23;20245;-78
2022/09/23 04:35:08;;;;;;;9.00;8.15;;;11.30;99.90;;;;;;6070196;23;20208;-78
2022/09/23 04:37:35;;;;;;;9.02;8.13;;;11.30;99.90;;;;;;6068261;23;20271;-78
2022/09/23 04:40:02;;;;;;;6.85;6.25;;;11.30;99.90;;;;;;6068701;23;20239;-78
2022/09/23 04:42:31;;;;;;;8.80;7.10;;;11.30;99.90;;;;;;6067547;23;20208;-78
2022/09/23 04:44:58;;;;;;;11.57;8.07;;;11.30;99.90;;;;;;6054446;23;20235;-77
2022/09/23 04:47:24;;;;;;;8.85;7.95;;;11.30;99.90;;;;;;6054987;23;20204;-78
2022/09/23 04:49:52;;;;;;;8.00;7.20;;;11.30;99.90;;;;;;6068133;23;20508;-78
2022/09/23 04:52:19;;;;;;;7.72;7.03;;;11.20;99.90;;;;;;6068698;23;20204;-78
2022/09/23 04:54:45;;;;;;;9.70;7.45;;;11.20;99.90;;;;;;6068251;23;20196;-78
2022/09/23 04:57:13;;;;;;;7.82;6.70;;;11.20;99.90;;;;;;6068808;23;20196;-78
2022/09/23 04:59:44;;;;;;;7.05;6.35;;;11.20;99.90;;;;;;6068550;23;20207;-78
2022/09/23 05:02:11;;;;;;;8.10;7.30;;;11.20;99.90;;;;;;6074196;23;20223;-77
2022/09/23 05:04:39;;;;;;;11.35;7.95;;;11.20;99.90;;;;;;6067658;23;20220;-78
2022/09/23 05:07:06;;;;;;;10.95;7.90;;;11.20;99.90;;;;;;6068713;23;20204;-77
2022/09/23 05:09:34;;;;;;;8.05;6.30;;;11.20;99.90;;;;;;6067186;23;20208;-77
2022/09/23 05:12:20;;;;;;;7.22;6.28;;;11.20;99.90;;;;;;6052752;23;20208;-77
2022/09/23 05:14:49;;;;;;;7.50;6.07;;;11.20;99.90;;;;;;6075115;23;20241;-78
2022/09/23 05:17:16;;;;;;;7.25;6.55;;;11.10;99.90;;;;;;6067828;23;20208;-79
2022/09/23 05:19:45;;;;;;;8.98;7.00;;;11.10;99.90;;;;;;6067556;23;20255;-79
2022/09/23 05:22:16;;;;;;;11.15;8.57;;;11.00;99.90;;;;;;6068065;23;20200;-79
2022/09/23 05:24:47;;;;;;;9.75;7.65;;;11.10;99.90;;;;;;6067339;23;20214;-79
2022/09/23 05:27:14;;;;;;;8.88;7.05;;;11.00;99.90;;;;;;6068351;23;20235;-78
2022/09/23 05:29:41;;;;;;;8.82;7.38;;;11.00;99.90;;;;;;6066867;23;20603;-78
2022/09/23 05:32:09;;;;;;;8.70;7.25;;;11.00;99.90;;;;;;6069082;23;20208;-78
2022/09/23 05:34:36;;;;;;;9.43;8.55;;;11.00;99.90;;;;;;6068398;23;20214;-78
2022/09/23 05:37:04;;;;;;;7.22;6.53;;;11.00;99.90;;;;;;6068799;23;20210;-78
2022/09/23 05:39:31;;;;;;;7.68;6.88;;;11.10;99.90;;;;;;6068710;23;20271;-78
2022/09/23 05:41:59;;;;;;;8.35;7.60;;;11.10;99.90;;;;;;6067496;23;20207;-78
2022/09/23 05:44:26;;;;;;;9.13;7.68;;;11.10;99.90;;;;;;6067258;23;20200;-78
2022/09/23 05:46:53;;;;;;;8.63;6.93;;;11.10;99.90;;;;;;6068084;23;20204;-79
2022/09/23 05:49:21;;;;;;;6.63;5.95;;;11.20;99.90;;;;;;6068812;23;20208;-79
2022/09/23 05:51:51;;;;;;;7.88;6.60;;;11.20;99.90;;;;;;6068794;23;20263;-78
2022/09/23 05:54:18;;;;;;;6.90;6.25;;;11.20;99.90;;;;;;6068449;23;20207;-78
2022/09/23 05:56:45;;;;;;;7.63;6.78;;;11.30;99.90;;;;;;6067923;23;20214;-78
2022/09/23 05:59:12;;;;;;;9.57;6.82;;;11.30;99.90;;;;;;6067926;23;20644;-78
2022/09/23 06:01:39;;;;;;;9.25;6.60;;;11.30;99.90;;;;;;6067969;23;20681;-77
2022/09/23 06:04:12;;;;;;;9.68;7.40;;;11.30;99.90;;;;;;6068252;23;20212;-77
2022/09/23 06:06:44;;;;;;;9.18;8.38;;;11.40;99.90;;;;;;6068253;23;20204;-78
2022/09/23 06:09:16;;;;;;;7.32;6.63;;;11.40;99.90;;;;;;6067653;23;20493;-78
2022/09/23 06:11:43;;;;;;;6.00;5.40;;;11.50;99.90;;;;;;6071943;23;20218;-78
2022/09/23 06:14:12;;;;;;;6.50;5.88;;;11.50;99.90;;;;;;6097020;23;20223;-79
2022/09/23 06:16:39;;;;;;;6.25;5.43;;;11.60;99.90;;;;;;6096473;23;20211;-79
2022/09/23 06:19:06;;;;;;;6.10;5.40;;;11.60;99.90;;;;;;6097250;23;20207;-78
2022/09/23 06:21:35;;;;;;;7.57;5.47;;;11.60;99.90;;;;;;6096634;23;20214;-78
2022/09/23 06:24:03;;;;;;;12.95;10.20;;;11.70;99.90;;;;;;6097071;23;20524;-78
2022/09/23 06:26:33;;;;;;;20.77;10.57;;;11.70;99.90;;;;;;6096454;23;20269;-79
2022/09/23 06:29:02;;;;;;;16.58;10.23;;;11.70;99.90;;;;;;6064925;23;20224;-78
2022/09/23 06:31:29;;;;;;;19.70;8.73;;;11.80;99.90;;;;;;6098867;23;20596;-78
2022/09/23 06:33:56;;;;;;;9.73;6.47;;;11.80;99.90;;;;;;6100043;23;20204;-80
2022/09/23 06:36:23;;;;;;;8.95;6.20;;;11.90;99.90;;;;;;6097899;23;20222;-78
2022/09/23 06:38:56;;;;;;;7.93;6.00;;;11.90;99.90;;;;;;6105655;23;20194;-78
2022/09/23 06:41:25;;;;;;;6.05;5.45;;;12.00;99.90;;;;;;6104218;23;20199;-77
2022/09/23 06:43:52;;;;;;;6.15;4.40;;;12.00;99.90;;;;;;6106499;23;20275;-77
2022/09/23 06:46:19;;;;;;;7.25;6.45;;;12.10;99.90;;;;;;6100966;23;20203;-78
2022/09/23 06:48:48;;;;;;;7.15;5.40;;;12.10;99.90;;;;;;6102620;23;20233;-79
2022/09/23 06:51:20;;;;;;;6.45;5.75;;;12.10;99.90;;;;;;6094594;23;20222;-79
2022/09/23 06:53:52;;;;;;;6.03;5.53;;;12.20;99.90;;;;;;6100250;23;20197;-78
2022/09/23 06:56:21;;;;;;;7.35;6.68;;;12.30;99.90;;;;;;6098404;23;20218;-79
2022/09/23 06:58:52;;;;;;;6.70;6.00;;;12.30;99.90;;;;;;6098149;23;20191;-78
2022/09/23 07:01:19;;;;;;;7.80;6.28;;;12.40;99.90;;;;;;6098049;23;20204;-79
2022/09/23 07:03:47;;;;;;;6.85;5.35;;;12.40;99.90;;;;;;6098516;23;20207;-78
2022/09/23 07:06:14;;;;;;;6.35;5.75;;;12.50;99.90;;;;;;6098506;23;20203;-79
2022/09/23 07:08:45;;;;;;;6.78;5.05;;;12.50;99.90;;;;;;6085029;23;20202;-78
2022/09/23 07:11:18;;;;;;;5.85;5.25;;;12.60;99.90;;;;;;6116167;23;20218;-78
2022/09/23 07:13:45;;;;;;;9.60;6.70;;;12.60;99.90;;;;;;6097864;23;20208;-79
2022/09/23 07:16:13;;;;;;;7.38;6.68;;;12.70;99.90;;;;;;6098458;23;20211;-78
2022/09/23 07:18:41;;;;;;;11.13;6.60;;;12.80;99.90;;;;;;6098492;23;20222;-77
2022/09/23 07:21:12;;;;;;;6.80;5.63;;;12.90;99.90;;;;;;6098661;23;20214;-78
2022/09/23 07:23:38;;;;;;;5.28;4.65;;;12.90;99.90;;;;;;6097999;23;20207;-77
2022/09/23 07:26:06;;;;;;;6.15;5.55;;;13.00;99.90;;;;;;6098492;23;20240;-77
2022/09/23 07:28:33;;;;;;;5.75;4.65;;;13.10;99.90;;;;;;6097844;23;20262;-77
2022/09/23 07:31:13;;;;;;;5.05;4.65;;;13.10;99.90;;;;;;6098605;23;20227;-77
2022/09/23 07:33:43;;;;;;;6.18;4.35;;;13.20;99.90;;;;;;6097157;23;20207;-78
2022/09/23 07:36:12;;;;;;;5.40;4.90;;;13.30;99.90;;;;;;6098681;23;20262;-79
2022/09/23 07:38:39;;;;;;;5.30;4.80;;;13.40;99.90;;;;;;6096977;23;20270;-78
2022/09/23 07:41:12;;;;;;;3.70;3.40;;;13.40;99.90;;;;;;6099364;23;20203;-78
2022/09/23 07:43:39;;;;;;;6.63;4.85;;;13.50;99.90;;;;;;6097650;23;20514;-79
2022/09/23 07:46:09;;;;;;;5.90;5.35;;;13.60;99.90;;;;;;6100096;23;20222;-77
2022/09/23 07:48:38;;;;;;;3.88;3.58;;;13.60;99.90;;;;;;6113125;23;20203;-79
2022/09/23 07:51:12;;;;;;;5.90;5.05;;;13.70;99.90;;;;;;6097218;23;20262;-78
2022/09/23 07:53:39;;;;;;;5.78;4.88;;;13.80;99.90;;;;;;6098041;23;20627;-77
2022/09/23 07:56:06;;;;;;;5.85;5.20;;;13.90;99.90;;;;;;6097435;23;20203;-78
2022/09/23 07:58:34;;;;;;;7.68;5.53;;;13.90;99.90;;;;;;6097329;23;20203;-78
2022/09/23 08:01:03;;;;;;;6.75;5.45;;;14.00;99.90;;;;;;6098442;23;20204;-78
2022/09/23 08:03:30;;;;;;;8.75;6.55;;;14.10;99.90;;;;;;6100485;23;20295;-78
2022/09/23 08:06:04;;;;;;;5.45;4.88;;;14.20;99.90;;;;;;6097406;23;20258;-78
2022/09/23 08:08:34;;;;;;;9.02;5.97;;;14.30;99.90;;;;;;6095020;23;20207;-77
2022/09/23 08:11:02;;;;;;;9.73;7.17;;;14.30;99.90;;;;;;6109534;23;20251;-77
2022/09/23 08:13:29;;;;;;;6.47;5.72;;;14.30;99.90;;;;;;6097648;23;20445;-77
2022/09/23 08:15:57;;;;;;;10.33;6.07;;;14.40;99.90;;;;;;6097714;23;20210;-78
2022/09/23 08:18:24;;;;;;;6.00;5.40;;;14.50;99.90;;;;;;6098142;23;20796;-78
2022/09/23 08:20:51;;;;;;;6.07;5.20;;;14.60;99.90;;;;;;6096293;23;20924;-77
2022/09/23 08:23:19;;;;;;;6.27;5.63;;;14.70;99.90;;;;;;6097360;23;20740;-77
2022/09/23 08:25:58;;;;;;;5.70;4.97;;;14.80;99.90;;;;;;6097637;23;20439;-78
2022/09/23 08:28:29;;;;;;;4.80;4.40;;;14.80;99.90;;;;;;6097652;23;20470;-78
2022/09/23 08:30:56;;;;;;;7.47;5.20;;;14.90;99.90;;;;;;6097334;23;20518;-78
2022/09/23 08:33:24;;;;;;;4.93;4.53;;;14.90;99.90;;;;;;6097578;23;20450;-77
2022/09/23 08:35:52;;;;;;;7.50;5.40;;;15.00;99.90;;;;;;6097767;23;20459;-78
2022/09/23 08:38:20;;;;;;;5.30;4.90;;;15.00;99.90;;;;;;6098104;23;20427;-79
2022/09/23 08:40:49;;;;;;;6.33;5.70;;;15.00;99.90;;;;;;6097221;23;20478;-77
2022/09/23 08:43:26;;;;;;;5.50;4.70;;;15.00;99.90;;;;;;6097399;23;20447;-78
2022/09/23 08:49:41;;;;;;;5.13;4.63;;;15.10;99.90;;;;;;6031181;23;20442;-78
2022/09/23 08:52:22;;;;;;;5.77;4.20;;;15.10;99.90;;;;;;6103515;23;20446;-78
2022/09/23 08:54:49;;;;;;;5.53;5.00;;;15.20;99.90;;;;;;6098013;23;20546;-78
2022/09/23 08:57:34;;;;;;;4.83;4.43;;;15.30;99.90;;;;;;6096675;23;20490;-80
2022/09/23 09:00:03;;;;;;;4.50;4.10;;;15.30;99.90;;;;;;6096038;23;20439;-78
2022/09/23 09:02:33;;;;;;;4.67;3.80;;;15.40;99.90;;;;;;6097736;23;20920;-79
2022/09/23 09:05:08;;;;;;;7.90;4.40;;;15.50;99.90;;;;;;6097662;23;20431;-78
2022/09/23 09:07:38;;;;;;;7.90;5.20;;;15.50;99.90;;;;;;6098663;23;20445;-79
2022/09/23 09:10:15;;;;;;;5.93;4.30;;;15.60;99.90;;;;;;6097687;23;20780;-79
2022/09/23 09:12:46;;;;;;;4.10;3.80;;;15.60;99.90;;;;;;6096790;23;20438;-79
2022/09/23 09:15:16;;;;;;;4.20;4.00;;;15.70;99.90;;;;;;6097679;23;20439;-79
2022/09/23 09:17:53;;;;;;;4.60;4.20;;;15.70;99.90;;;;;;6097550;23;20900;-79
2022/09/23 09:20:32;;;;;;;4.50;4.10;;;15.80;99.90;;;;;;6096755;23;20463;-79
2022/09/23 09:23:02;;;;;;;6.97;5.73;;;15.90;99.90;;;;;;6098310;23;20963;-78
2022/09/23 09:25:41;;;;;;;5.50;4.47;;;15.90;99.90;;;;;;6097334;23;20424;-78
2022/09/23 09:28:17;;;;;;;4.53;4.17;;;16.00;99.90;;;;;;6097468;23;20463;-78
2022/09/23 09:30:45;;;;;;;7.07;5.23;;;16.10;99.90;;;;;;6097893;23;20733;-80
2022/09/23 09:33:18;;;;;;;8.80;4.93;;;16.10;99.90;;;;;;6096051;23;20439;-80
2022/09/23 09:36:19;;;;;;;10.10;3.87;;;16.20;99.90;;;;;;6096973;23;20441;-78
2022/09/23 09:38:46;;;;;;;6.53;4.50;;;16.20;99.90;;;;;;6086995;23;20442;-80
2022/09/23 09:41:16;;;;;;;7.37;3.53;;;16.20;99.90;;;;;;6096727;23;20778;-80
2022/09/23 09:43:55;;;;;;;4.30;3.60;;;16.30;99.90;;;;;;6097360;23;21090;-80
2022/09/23 09:46:43;;;;;;;3.80;3.30;;;16.30;99.90;;;;;;6097665;23;20508;-80
2022/09/23 09:49:22;;;;;;;5.87;3.43;;;16.40;99.90;;;;;;6096827;23;20447;-80
2022/09/23 09:51:49;;;;;;;9.43;3.73;;;16.50;99.90;;;;;;6098555;23;20465;-78
2022/09/23 09:54:22;;;;;;;5.77;3.40;;;16.50;99.90;;;;;;6097013;23;20443;-78
2022/09/23 09:56:52;;;;;;;3.43;2.80;;;16.50;99.90;;;;;;6097672;23;20450;-77
2022/09/23 09:59:27;;;;;;;2.80;2.60;;;16.60;99.90;;;;;;6096510;23;20511;-79
2022/09/23 10:02:13;;;;;;;3.80;3.03;;;16.60;99.90;;;;;;6097022;23;20492;-77
2022/09/23 10:04:41;;;;;;;2.27;2.07;;;16.60;99.90;;;;;;6096883;23;20914;-77
2022/09/23 10:07:14;;;;;;;3.73;2.43;;;16.70;99.90;;;;;;6097523;23;20429;-78
2022/09/23 10:09:49;;;;;;;4.27;3.87;;;16.70;99.80;;;;;;6068148;23;20971;-79
2022/09/23 10:12:23;;;;;;;4.70;4.30;;;16.80;99.50;;;;;;6067927;23;20448;-79
2022/09/23 10:14:57;;;;;;;3.10;2.80;;;16.90;99.50;;;;;;6086289;23;20790;-78
2022/09/23 10:20:38;;;;;;;2.90;1.60;;;16.90;96.20;;;;;;6035423;23;20434;-82
2022/09/23 10:23:13;;;;;;;2.03;1.83;;;17.00;96.10;;;;;;6068839;23;20438;-79
2022/09/23 10:25:45;;;;;;;1.93;1.80;;;17.00;96.20;;;;;;6067777;23;20458;-79
2022/09/23 10:28:32;;;;;;;4.43;2.30;;;17.10;96.20;;;;;;6068709;23;20472;-79
2022/09/23 10:31:17;;;;;;;4.20;2.37;;;17.10;95.50;;;;;;6067610;23;20434;-79
2022/09/23 10:34:22;;;;;;;2.40;2.23;;;17.20;95.20;;;;;;6050551;23;20446;-78
2022/09/23 10:36:55;;;;;;;2.33;2.13;;;17.20;94.90;;;;;;6067219;23;20623;-79
2022/09/23 10:48:11;;;;;;;1.90;1.80;;;17.30;94.40;;;;;;6067406;23;20458;-79
2022/09/23 10:50:43;;;;;;;3.73;2.17;;;17.30;94.60;;;;;;6066850;23;20441;-79
2022/09/23 10:53:27;;;;;;;3.90;2.23;;;17.30;94.30;;;;;;6064451;23;20445;-78
2022/09/23 10:56:10;;;;;;;2.43;2.13;;;17.30;93.50;;;;;;6066159;23;20539;-79
2022/09/23 10:59:01;;;;;;;2.97;2.13;;;17.20;93.50;;;;;;6067552;23;20474;-78
2022/09/23 11:01:39;;;;;;;2.97;2.77;;;17.20;93.90;;;;;;6067240;23;20450;-79
2022/09/23 11:04:57;;;;;;;2.13;2.03;;;17.30;93.90;;;;;;6066752;23;20439;-79
2022/09/23 11:07:34;;;;;;;2.10;1.87;;;17.40;94.00;;;;;;5952906;24;20559;-79
2022/09/23 11:10:39;;;;;;;2.83;2.63;;;17.40;94.40;;;;;;5951532;24;20458;-78
2022/09/23 11:13:22;;;;;;;2.50;1.67;;;17.50;94.30;;;;;;6058180;23;20473;-77
2022/09/23 11:15:56;;;;;;;2.07;1.90;;;17.50;93.40;;;;;;6114357;23;20494;-76
2022/09/23 11:18:45;;;;;;;1.60;1.40;;;17.50;93.60;;;;;;6098339;23;20516;-78
2022/09/23 11:21:31;;;;;;;2.50;2.20;;;17.60;93.50;;;;;;6097751;23;20442;-78
2022/09/23 11:24:36;;;;;;;2.30;2.10;;;17.60;93.20;;;;;;6096735;23;20501;-78
2022/09/23 11:27:17;;;;;;;3.77;3.00;;;17.70;93.30;;;;;;6098676;23;20498;-79
2022/09/23 11:29:56;;;;;;;3.30;3.00;;;17.70;93.70;;;;;;6097832;23;20453;-78
2022/09/23 11:32:38;;;;;;;3.47;3.17;;;17.70;93.70;;;;;;6099098;23;20440;-78
2022/09/23 11:35:15;;;;;;;3.37;3.07;;;17.80;94.00;;;;;;6098129;23;20435;-78
2022/09/23 11:37:47;;;;;;;3.07;2.43;;;17.70;93.20;;;;;;6098573;23;20442;-79
2022/09/23 11:40:27;;;;;;;2.13;1.93;;;17.70;93.20;;;;;;6099169;23;20489;-78
2022/09/23 11:42:58;;;;;;;4.57;2.60;;;17.80;92.90;;;;;;6085698;23;20443;-78
2022/09/23 11:45:31;;;;;;;2.53;2.33;;;17.80;92.70;;;;;;6087110;23;20497;-79
2022/09/23 11:48:02;;;;;;;2.63;2.40;;;17.80;92.50;;;;;;6098193;23;20443;-78
2022/09/23 11:50:35;;;;;;;2.57;2.30;;;17.80;92.30;;;;;;6097584;23;20444;-78
2022/09/23 11:53:08;;;;;;;4.60;2.50;;;17.80;92.10;;;;;;6097405;23;20443;-79
2022/09/23 11:55:46;;;;;;;2.70;2.50;;;17.80;92.20;;;;;;6096630;23;20436;-79
2022/09/23 11:58:18;;;;;;;3.83;2.37;;;17.80;92.20;;;;;;6096798;23;20509;-78
2022/09/23 12:00:51;;;;;;;2.10;1.90;;;17.80;92.20;;;;;;6097542;23;20436;-79
2022/09/23 12:03:23;;;;;;;2.40;1.80;;;17.90;92.10;;;;;;6097869;23;20450;-78
2022/09/23 12:06:00;;;;;;;2.10;1.83;;;17.90;91.90;;;;;;6091260;23;20438;-77
2022/09/23 12:08:29;;;;;;;4.07;3.60;;;17.90;91.90;;;;;;6098570;23;20443;-79
2022/09/23 12:11:05;;;;;;;4.13;3.60;;;17.90;92.20;;;;;;6097930;23;20427;-80
2022/09/23 12:13:42;;;;;;;6.60;6.00;;;17.90;92.70;;;;;;6097498;23;20938;-79
2022/09/23 12:16:38;;;;;;;3.80;3.50;;;18.00;93.10;;;;;;6098055;23;20442;-81
2022/09/23 12:19:20;;;;;;;3.17;2.90;;;18.00;93.40;;;;;;6097588;23;20732;-80
2022/09/23 12:22:03;;;;;;;2.30;1.80;;;18.00;92.90;;;;;;6097263;23;20453;-79
2022/09/23 12:24:50;;;;;;;4.30;3.90;;;18.00;91.70;;;;;;6097986;23;20498;-79
2022/09/23 12:27:26;;;;;;;5.80;5.20;;;18.00;91.10;;;;;;6098605;23;20504;-80
2022/09/23 12:29:57;;;;;;;8.00;6.00;;;18.00;91.30;;;;;;6097419;23;20919;-79
2022/09/23 12:32:30;;;;;;;5.60;5.10;;;18.10;91.40;;;;;;6097918;23;20482;-78
2022/09/23 12:34:59;;;;;;;2.13;2.03;;;18.10;91.50;;;;;;6097656;23;20426;-78
2022/09/23 12:37:32;;;;;;;1.80;1.70;;;18.10;90.40;;;;;;6098049;23;20972;-79
2022/09/23 12:40:05;;;;;;;1.70;1.60;;;18.10;90.00;;;;;;6097746;23;20445;-78
2022/09/23 12:42:43;;;;;;;2.30;2.10;;;18.10;89.50;;;;;;6097391;23;20463;-79
2022/09/23 12:45:37;;;;;;;4.83;3.57;;;18.10;89.10;;;;;;6097683;23;20427;-78
2022/09/23 12:48:20;;;;;;;6.13;4.17;;;18.10;90.20;;;;;;6098268;23;20446;-78
2022/09/23 12:50:53;;;;;;;3.17;2.87;;;18.10;90.80;;;;;;6097953;23;20984;-79
2022/09/23 12:54:08;;;;;;;2.97;1.77;;;18.10;90.80;;;;;;6097304;23;20432;-78
2022/09/23 12:56:58;;;;;;;2.33;2.10;;;18.10;89.70;;;;;;6094901;23;20507;-79
2022/09/23 12:59:29;;;;;;;2.73;2.00;;;18.10;89.30;;;;;;6096138;23;20462;-78
2022/09/23 13:08:09;;;;;;;3.50;3.20;;;18.10;90.40;;;;;;6097556;23;20458;-79
2022/09/23 13:10:43;;;;;;;2.80;2.60;;;18.10;90.70;;;;;;6097419;23;20442;-78
2022/09/23 13:13:21;;;;;;;2.87;2.20;;;18.10;90.60;;;;;;6087128;23;20437;-80
2022/09/23 13:15:53;;;;;;;2.10;1.77;;;18.10;90.60;;;;;;6113628;23;20438;-79
2022/09/23 13:18:53;;;;;;;1.67;1.57;;;18.00;90.10;;;;;;6097125;23;20507;-80
2022/09/23 13:25:05;;;;;;;4.20;3.80;;;18.00;89.10;;;;;;5994543;23;20448;-79
2022/09/23 13:31:15;;;;;;;2.43;2.23;;;18.00;87.60;;;;;;5909508;24;20485;-79
2022/09/23 13:33:46;;;;;;;4.53;4.10;;;18.00;88.50;;;;;;6008573;23;20441;-79
2022/09/23 13:36:15;;;;;;;4.73;4.33;;;18.00;89.50;;;;;;6009840;23;20529;-79
2022/09/23 13:38:42;;;;;;;5.50;4.97;;;18.00;90.10;;;;;;6051318;23;20454;-79
2022/09/23 13:41:15;;;;;;;16.43;13.50;;;18.00;90.10;;;;;;6097294;23;21222;-78
2022/09/23 13:43:44;;;;;;;7.10;6.40;;;18.00;90.20;;;;;;6081998;23;20995;-78